sensor_id;sensor_type;location;lat;lon;timestamp;temperature;humidity
67165;SHT31;54093;50.014;19.984;2023-08-06T00:06:37;20.18;85.79
67165;SHT31;54093;50.014;19.984;2023-08-06T00:16:11;20.12;86.04
67165;SHT31;54093;50.014;19.984;2023-08-06T00:25:32;20.14;85.98
67165;SHT31;54093;50.014;19.984;2023-08-06T00:34:53;20.11;86.39
67165;SHT31;54093;50.014;19.984;2023-08-06T00:44:14;20.10;86.06
67165;SHT31;54093;50.014;19.984;2023-08-06T00:53:35;20.07;86.51
67165;SHT31;54093;50.014;19.984;2023-08-06T01:02:56;20.04;86.51
67165;SHT31;54093;50.014;19.984;2023-08-06T01:21:51;20.01;86.53
67165;SHT31;54093;50.014;19.984;2023-08-06T01:31:26;20.04;86.41
67165;SHT31;54093;50.014;19.984;2023-08-06T01:40:47;20.07;86.12
67165;SHT31;54093;50.014;19.984;2023-08-06T01:50:08;20.08;85.93
67165;SHT31;54093;50.014;19.984;2023-08-06T01:59:29;20.10;86.19
67165;SHT31;54093;50.014;19.984;2023-08-06T02:08:50;20.15;85.68
67165;SHT31;54093;50.014;19.984;2023-08-06T02:18:10;20.18;85.34
67165;SHT31;54093;50.014;19.984;2023-08-06T02:27:31;20.20;85.08
67165;SHT31;54093;50.014;19.984;2023-08-06T02:36:52;20.22;84.94
67165;SHT31;54093;50.014;19.984;2023-08-06T02:46:13;20.21;85.39
67165;SHT31;54093;50.014;19.984;2023-08-06T02:55:34;20.20;85.81
67165;SHT31;54093;50.014;19.984;2023-08-06T03:04:55;20.18;85.70
67165;SHT31;54093;50.014;19.984;2023-08-06T03:14:16;20.20;85.58
67165;SHT31;54093;50.014;19.984;2023-08-06T03:23:37;20.20;85.41
67165;SHT31;54093;50.014;19.984;2023-08-06T03:32:58;20.21;85.44
67165;SHT31;54093;50.014;19.984;2023-08-06T03:42:18;20.20;85.54
67165;SHT31;54093;50.014;19.984;2023-08-06T03:51:39;20.21;85.57
67165;SHT31;54093;50.014;19.984;2023-08-06T04:01:02;20.17;85.94
67165;SHT31;54093;50.014;19.984;2023-08-06T04:10:23;20.20;85.94
67165;SHT31;54093;50.014;19.984;2023-08-06T04:19:44;20.17;85.97
67165;SHT31;54093;50.014;19.984;2023-08-06T04:29:05;20.17;86.19
67165;SHT31;54093;50.014;19.984;2023-08-06T04:38:26;20.18;85.97
67165;SHT31;54093;50.014;19.984;2023-08-06T04:47:47;20.21;85.69
67165;SHT31;54093;50.014;19.984;2023-08-06T04:57:07;20.25;85.27
67165;SHT31;54093;50.014;19.984;2023-08-06T05:06:29;20.31;84.90
67165;SHT31;54093;50.014;19.984;2023-08-06T05:15:49;20.29;85.16
67165;SHT31;54093;50.014;19.984;2023-08-06T05:25:13;20.32;85.14
67165;SHT31;54093;50.014;19.984;2023-08-06T05:34:34;20.33;85.60
67165;SHT31;54093;50.014;19.984;2023-08-06T05:43:55;20.29;85.90
67165;SHT31;54093;50.014;19.984;2023-08-06T05:53:16;20.26;86.30
67165;SHT31;54093;50.014;19.984;2023-08-06T06:02:37;20.28;86.27
67165;SHT31;54093;50.014;19.984;2023-08-06T06:11:58;20.35;86.53
67165;SHT31;54093;50.014;19.984;2023-08-06T06:21:18;20.33;86.21
67165;SHT31;54093;50.014;19.984;2023-08-06T06:30:41;20.36;86.04
67165;SHT31;54093;50.014;19.984;2023-08-06T06:40:02;20.35;86.12
67165;SHT31;54093;50.014;19.984;2023-08-06T06:49:24;20.33;86.18
67165;SHT31;54093;50.014;19.984;2023-08-06T06:58:45;20.33;86.21
67165;SHT31;54093;50.014;19.984;2023-08-06T07:08:06;20.33;86.14
67165;SHT31;54093;50.014;19.984;2023-08-06T07:17:27;20.28;86.11
67165;SHT31;54093;50.014;19.984;2023-08-06T07:26:48;20.32;86.09
67165;SHT31;54093;50.014;19.984;2023-08-06T07:36:11;20.35;86.39
67165;SHT31;54093;50.014;19.984;2023-08-06T07:45:35;20.18;82.93
67165;SHT31;54093;50.014;19.984;2023-08-06T07:54:56;19.77;82.25
67165;SHT31;54093;50.014;19.984;2023-08-06T08:04:17;19.30;83.65
67165;SHT31;54093;50.014;19.984;2023-08-06T08:13:38;19.19;84.68
67165;SHT31;54093;50.014;19.984;2023-08-06T08:22:59;18.91;83.64
67165;SHT31;54093;50.014;19.984;2023-08-06T08:32:21;18.67;83.87
67165;SHT31;54093;50.014;19.984;2023-08-06T08:41:42;18.36;84.11
67165;SHT31;54093;50.014;19.984;2023-08-06T08:51:03;18.23;83.86
67165;SHT31;54093;50.014;19.984;2023-08-06T09:00:25;18.03;84.29
67165;SHT31;54093;50.014;19.984;2023-08-06T09:09:48;17.98;85.00
67165;SHT31;54093;50.014;19.984;2023-08-06T09:19:11;18.06;85.73
67165;SHT31;54093;50.014;19.984;2023-08-06T09:28:38;18.16;85.03
67165;SHT31;54093;50.014;19.984;2023-08-06T09:38:09;18.08;84.70
67165;SHT31;54093;50.014;19.984;2023-08-06T09:47:33;17.93;83.80
67165;SHT31;54093;50.014;19.984;2023-08-06T09:56:54;17.82;84.49
67165;SHT31;54093;50.014;19.984;2023-08-06T10:06:15;17.67;84.92
67165;SHT31;54093;50.014;19.984;2023-08-06T10:15:37;17.68;85.22
67165;SHT31;54093;50.014;19.984;2023-08-06T10:25:00;17.75;84.69
67165;SHT31;54093;50.014;19.984;2023-08-06T10:34:53;17.68;84.44
67165;SHT31;54093;50.014;19.984;2023-08-06T10:44:14;17.62;83.07
67165;SHT31;54093;50.014;19.984;2023-08-06T10:53:35;17.62;83.32
67165;SHT31;54093;50.014;19.984;2023-08-06T11:02:56;17.48;84.41
67165;SHT31;54093;50.014;19.984;2023-08-06T11:12:19;17.44;84.33
67165;SHT31;54093;50.014;19.984;2023-08-06T11:21:41;17.38;82.65
67165;SHT31;54093;50.014;19.984;2023-08-06T11:31:04;17.14;84.13
67165;SHT31;54093;50.014;19.984;2023-08-06T11:40:25;17.07;84.05
67165;SHT31;54093;50.014;19.984;2023-08-06T11:49:47;17.14;84.53
67165;SHT31;54093;50.014;19.984;2023-08-06T11:59:08;17.04;82.76
67165;SHT31;54093;50.014;19.984;2023-08-06T12:08:30;16.77;84.05
67165;SHT31;54093;50.014;19.984;2023-08-06T12:17:51;16.55;84.33
67165;SHT31;54093;50.014;19.984;2023-08-06T12:27:12;16.44;83.61
67165;SHT31;54093;50.014;19.984;2023-08-06T12:36:33;16.34;84.92
67165;SHT31;54093;50.014;19.984;2023-08-06T12:45:54;16.41;83.70
67165;SHT31;54093;50.014;19.984;2023-08-06T12:55:15;16.32;83.86
67165;SHT31;54093;50.014;19.984;2023-08-06T13:04:36;16.36;84.74
67165;SHT31;54093;50.014;19.984;2023-08-06T13:14:04;16.15;85.08
67165;SHT31;54093;50.014;19.984;2023-08-06T13:23:25;16.07;84.77
67165;SHT31;54093;50.014;19.984;2023-08-06T13:32:46;16.11;86.11
67165;SHT31;54093;50.014;19.984;2023-08-06T13:42:07;16.18;85.71
67165;SHT31;54093;50.014;19.984;2023-08-06T13:51:29;16.14;85.57
67165;SHT31;54093;50.014;19.984;2023-08-06T14:00:50;16.18;86.04
67165;SHT31;54093;50.014;19.984;2023-08-06T14:10:13;16.21;85.27
67165;SHT31;54093;50.014;19.984;2023-08-06T14:19:35;16.29;86.49
67165;SHT31;54093;50.014;19.984;2023-08-06T14:28:56;16.36;86.34
67165;SHT31;54093;50.014;19.984;2023-08-06T14:38:16;16.36;86.16
67165;SHT31;54093;50.014;19.984;2023-08-06T14:47:41;16.34;86.43
67165;SHT31;54093;50.014;19.984;2023-08-06T14:57:02;16.52;85.98
67165;SHT31;54093;50.014;19.984;2023-08-06T15:06:23;16.62;85.62
67165;SHT31;54093;50.014;19.984;2023-08-06T15:15:46;16.62;85.14
67165;SHT31;54093;50.014;19.984;2023-08-06T15:25:07;16.62;84.17
67165;SHT31;54093;50.014;19.984;2023-08-06T15:34:28;16.63;83.06
67165;SHT31;54093;50.014;19.984;2023-08-06T15:43:49;16.52;84.64
67165;SHT31;54093;50.014;19.984;2023-08-06T15:53:10;16.47;85.11
67165;SHT31;54093;50.014;19.984;2023-08-06T16:02:32;16.44;85.28
67165;SHT31;54093;50.014;19.984;2023-08-06T16:11:53;16.49;85.38
67165;SHT31;54093;50.014;19.984;2023-08-06T16:21:15;16.47;84.87
67165;SHT31;54093;50.014;19.984;2023-08-06T16:30:36;16.47;84.64
67165;SHT31;54093;50.014;19.984;2023-08-06T16:39:57;16.32;85.13
67165;SHT31;54093;50.014;19.984;2023-08-06T16:49:17;16.41;85.24
67165;SHT31;54093;50.014;19.984;2023-08-06T16:58:39;16.31;85.08
67165;SHT31;54093;50.014;19.984;2023-08-06T17:07:59;16.25;83.94
67165;SHT31;54093;50.014;19.984;2023-08-06T17:17:21;16.21;83.63
67165;SHT31;54093;50.014;19.984;2023-08-06T17:26:42;16.11;84.70
67165;SHT31;54093;50.014;19.984;2023-08-06T17:36:03;16.13;84.53
67165;SHT31;54093;50.014;19.984;2023-08-06T17:45:25;16.03;84.41
67165;SHT31;54093;50.014;19.984;2023-08-06T17:54:46;15.98;84.34
67165;SHT31;54093;50.014;19.984;2023-08-06T18:04:06;15.96;83.96
67165;SHT31;54093;50.014;19.984;2023-08-06T18:13:28;15.83;84.28
67165;SHT31;54093;50.014;19.984;2023-08-06T18:22:49;15.80;83.92
67165;SHT31;54093;50.014;19.984;2023-08-06T18:32:11;15.69;83.81
67165;SHT31;54093;50.014;19.984;2023-08-06T18:41:32;15.62;83.97
67165;SHT31;54093;50.014;19.984;2023-08-06T18:50:53;15.55;83.88
67165;SHT31;54093;50.014;19.984;2023-08-06T19:00:16;15.55;83.88
67165;SHT31;54093;50.014;19.984;2023-08-06T19:09:40;15.43;84.38
67165;SHT31;54093;50.014;19.984;2023-08-06T19:19:05;15.46;83.81
67165;SHT31;54093;50.014;19.984;2023-08-06T19:28:26;15.39;83.07
67165;SHT31;54093;50.014;19.984;2023-08-06T19:37:47;15.32;83.48
67165;SHT31;54093;50.014;19.984;2023-08-06T19:47:08;15.27;83.35
67165;SHT31;54093;50.014;19.984;2023-08-06T19:56:29;15.24;82.86
67165;SHT31;54093;50.014;19.984;2023-08-06T20:05:50;15.14;83.64
67165;SHT31;54093;50.014;19.984;2023-08-06T20:15:11;15.07;83.36
67165;SHT31;54093;50.014;19.984;2023-08-06T20:24:32;15.04;83.56
67165;SHT31;54093;50.014;19.984;2023-08-06T20:33:53;14.95;83.94
67165;SHT31;54093;50.014;19.984;2023-08-06T20:43:14;14.94;83.66
67165;SHT31;54093;50.014;19.984;2023-08-06T20:52:35;14.88;83.32
67165;SHT31;54093;50.014;19.984;2023-08-06T21:01:56;14.94;83.18
67165;SHT31;54093;50.014;19.984;2023-08-06T21:11:17;14.73;84.02
67165;SHT31;54093;50.014;19.984;2023-08-06T21:20:38;14.71;84.07
67165;SHT31;54093;50.014;19.984;2023-08-06T21:29:59;14.77;84.41
67165;SHT31;54093;50.014;19.984;2023-08-06T21:39:20;14.70;84.93
67165;SHT31;54093;50.014;19.984;2023-08-06T21:48:45;14.80;85.45
67165;SHT31;54093;50.014;19.984;2023-08-06T21:58:06;14.91;85.14
67165;SHT31;54093;50.014;19.984;2023-08-06T22:07:27;14.95;84.43
67165;SHT31;54093;50.014;19.984;2023-08-06T22:16:48;14.90;84.24
67165;SHT31;54093;50.014;19.984;2023-08-06T22:26:09;15.01;84.74
67165;SHT31;54093;50.014;19.984;2023-08-06T22:35:30;14.91;85.64
67165;SHT31;54093;50.014;19.984;2023-08-06T22:44:50;14.92;85.63
67165;SHT31;54093;50.014;19.984;2023-08-06T22:54:11;14.92;85.42
67165;SHT31;54093;50.014;19.984;2023-08-06T23:03:32;14.97;85.32
67165;SHT31;54093;50.014;19.984;2023-08-06T23:12:53;14.92;85.41
67165;SHT31;54093;50.014;19.984;2023-08-06T23:22:14;14.94;85.34
67165;SHT31;54093;50.014;19.984;2023-08-06T23:31:35;14.97;85.00
67165;SHT31;54093;50.014;19.984;2023-08-06T23:40:56;14.92;84.90
67165;SHT31;54093;50.014;19.984;2023-08-06T23:50:17;14.88;85.11
67165;SHT31;54093;50.014;19.984;2023-08-06T23:59:38;14.84;85.11
